Castledawson, United Kingdom
Current Conditions -  °F | °C
As of 6:50 AM on Monday 22 Dec 2014 (Local Time) from EGAA Reporting Station
Light Rain Light Rain  
Wind Chill: 52°   Ceiling: 700
Heat Index: 52°   Visibility: 6mi
Dew Point: 52°   Wind: 16mph
Humidity: 100%   Direction: 230°SW
Pressure: 29.68"   Gusts: NA
Location:  54.78°N, 6.56°W
Report Text: EGAA 220650Z 23014KT 9999 -RA FEW004 BKN007 11/11 Q1005
Loading
Personal Weather Stations






























Interactive Weather Map New forecast layout! Learn more

10-Day Weather Forecast

Advertisements
Track Severe Weather on mobile